sensor_id;sensor_type;location;lat;lon;timestamp;pressure;altitude;pressure_sealevel;temperature;humidity
32197;BME280;18697;42.770;23.400;2023-11-19T00:01:25;95521.84;;;4.60;74.16
32197;BME280;18697;42.770;23.400;2023-11-19T00:03:51;95520.97;;;4.63;74.55
32197;BME280;18697;42.770;23.400;2023-11-19T00:06:16;95524.06;;;4.65;74.45
32197;BME280;18697;42.770;23.400;2023-11-19T00:08:42;95529.50;;;4.69;74.46
32197;BME280;18697;42.770;23.400;2023-11-19T00:11:08;95529.41;;;4.72;74.29
32197;BME280;18697;42.770;23.400;2023-11-19T00:13:34;95525.63;;;4.66;74.14
32197;BME280;18697;42.770;23.400;2023-11-19T00:15:59;95525.63;;;4.66;74.49
32197;BME280;18697;42.770;23.400;2023-11-19T00:18:25;95515.22;;;4.74;74.10
32197;BME280;18697;42.770;23.400;2023-11-19T00:20:50;95523.91;;;4.72;73.91
32197;BME280;18697;42.770;23.400;2023-11-19T00:23:16;95526.31;;;4.70;73.87
32197;BME280;18697;42.770;23.400;2023-11-19T00:25:41;95525.03;;;4.75;74.00
32197;BME280;18697;42.770;23.400;2023-11-19T00:28:06;95527.72;;;4.78;73.99
32197;BME280;18697;42.770;23.400;2023-11-19T00:30:32;95534.91;;;4.72;73.65
32197;BME280;18697;42.770;23.400;2023-11-19T00:32:57;95525.97;;;4.68;73.40
32197;BME280;18697;42.770;23.400;2023-11-19T00:35:23;95537.31;;;4.70;73.51
32197;BME280;18697;42.770;23.400;2023-11-19T00:37:49;95546.44;;;4.67;73.24
32197;BME280;18697;42.770;23.400;2023-11-19T00:40:15;95544.44;;;4.68;73.35
32197;BME280;18697;42.770;23.400;2023-11-19T00:42:46;95548.41;;;4.67;73.58
32197;BME280;18697;42.770;23.400;2023-11-19T00:45:12;95537.06;;;4.65;73.61
32197;BME280;18697;42.770;23.400;2023-11-19T00:47:38;95542.28;;;4.59;73.87
32197;BME280;18697;42.770;23.400;2023-11-19T00:50:05;95544.88;;;4.66;73.65
32197;BME280;18697;42.770;23.400;2023-11-19T00:52:31;95553.13;;;4.66;73.54
32197;BME280;18697;42.770;23.400;2023-11-19T00:54:56;95537.56;;;4.59;73.89
32197;BME280;18697;42.770;23.400;2023-11-19T00:57:22;95544.00;;;4.53;73.66
32197;BME280;18697;42.770;23.400;2023-11-19T00:59:49;95545.19;;;4.52;73.91
32197;BME280;18697;42.770;23.400;2023-11-19T01:02:14;95546.66;;;4.56;73.86
32197;BME280;18697;42.770;23.400;2023-11-19T01:04:40;95555.00;;;4.53;73.81
32197;BME280;18697;42.770;23.400;2023-11-19T01:07:05;95551.75;;;4.58;73.90
32197;BME280;18697;42.770;23.400;2023-11-19T01:09:34;95555.69;;;4.57;73.77
32197;BME280;18697;42.770;23.400;2023-11-19T01:12:00;95552.16;;;4.56;73.78
32197;BME280;18697;42.770;23.400;2023-11-19T01:14:26;95562.41;;;4.56;73.68
32197;BME280;18697;42.770;23.400;2023-11-19T01:16:52;95562.13;;;4.50;73.75
32197;BME280;18697;42.770;23.400;2023-11-19T01:19:19;95550.09;;;4.44;74.27
32197;BME280;18697;42.770;23.400;2023-11-19T01:21:44;95555.84;;;4.50;74.26
32197;BME280;18697;42.770;23.400;2023-11-19T01:24:09;95545.97;;;4.52;74.14
32197;BME280;18697;42.770;23.400;2023-11-19T01:26:37;95552.41;;;4.46;74.26
32197;BME280;18697;42.770;23.400;2023-11-19T01:29:02;95549.56;;;4.49;74.15
32197;BME280;18697;42.770;23.400;2023-11-19T01:31:30;95546.91;;;4.46;74.72
32197;BME280;18697;42.770;23.400;2023-11-19T01:33:56;95547.78;;;4.43;74.42
32197;BME280;18697;42.770;23.400;2023-11-19T01:36:22;95545.94;;;4.36;74.88
32197;BME280;18697;42.770;23.400;2023-11-19T01:38:48;95553.72;;;4.41;74.99
32197;BME280;18697;42.770;23.400;2023-11-19T01:41:14;95550.94;;;4.41;74.68
32197;BME280;18697;42.770;23.400;2023-11-19T01:43:39;95558.00;;;4.42;74.38
32197;BME280;18697;42.770;23.400;2023-11-19T01:46:08;95551.59;;;4.29;74.80
32197;BME280;18697;42.770;23.400;2023-11-19T01:48:40;95557.03;;;4.33;75.01
32197;BME280;18697;42.770;23.400;2023-11-19T01:51:07;95558.72;;;4.26;74.92
32197;BME280;18697;42.770;23.400;2023-11-19T01:53:34;95551.69;;;4.25;75.04
32197;BME280;18697;42.770;23.400;2023-11-19T01:56:00;95558.03;;;4.22;74.94
32197;BME280;18697;42.770;23.400;2023-11-19T01:58:26;95558.94;;;4.16;75.06
32197;BME280;18697;42.770;23.400;2023-11-19T02:00:52;95551.19;;;4.11;75.12
32197;BME280;18697;42.770;23.400;2023-11-19T02:03:18;95564.44;;;4.16;75.11
32197;BME280;18697;42.770;23.400;2023-11-19T02:05:45;95565.16;;;4.20;74.73
32197;BME280;18697;42.770;23.400;2023-11-19T02:08:14;95573.88;;;4.15;74.93
32197;BME280;18697;42.770;23.400;2023-11-19T02:10:39;95566.91;;;4.10;75.13
32197;BME280;18697;42.770;23.400;2023-11-19T02:13:04;95563.66;;;4.15;74.81
32197;BME280;18697;42.770;23.400;2023-11-19T02:15:32;95560.00;;;4.02;74.96
32197;BME280;18697;42.770;23.400;2023-11-19T02:17:57;95566.00;;;4.17;74.53
32197;BME280;18697;42.770;23.400;2023-11-19T02:20:42;95562.31;;;4.23;74.74
32197;BME280;18697;42.770;23.400;2023-11-19T02:23:07;95558.88;;;4.19;74.48
32197;BME280;18697;42.770;23.400;2023-11-19T02:25:33;95553.72;;;4.21;74.55
32197;BME280;18697;42.770;23.400;2023-11-19T02:28:00;95562.75;;;4.22;74.62
32197;BME280;18697;42.770;23.400;2023-11-19T02:30:26;95569.78;;;4.23;74.11
32197;BME280;18697;42.770;23.400;2023-11-19T02:32:54;95565.50;;;4.22;74.23
32197;BME280;18697;42.770;23.400;2023-11-19T02:35:22;95563.94;;;4.21;74.30
32197;BME280;18697;42.770;23.400;2023-11-19T02:37:48;95560.78;;;4.22;73.53
32197;BME280;18697;42.770;23.400;2023-11-19T02:40:13;95556.13;;;4.19;73.78
32197;BME280;18697;42.770;23.400;2023-11-19T02:42:39;95558.03;;;4.22;74.28
32197;BME280;18697;42.770;23.400;2023-11-19T02:45:04;95565.78;;;4.27;73.86
32197;BME280;18697;42.770;23.400;2023-11-19T02:47:33;95567.47;;;4.21;74.00
32197;BME280;18697;42.770;23.400;2023-11-19T02:49:59;95555.69;;;4.21;73.91
32197;BME280;18697;42.770;23.400;2023-11-19T02:52:24;95560.34;;;4.24;73.59
32197;BME280;18697;42.770;23.400;2023-11-19T02:54:50;95565.06;;;4.23;73.63
32197;BME280;18697;42.770;23.400;2023-11-19T02:57:16;95566.34;;;4.19;74.10
32197;BME280;18697;42.770;23.400;2023-11-19T02:59:44;95557.59;;;4.24;73.60
32197;BME280;18697;42.770;23.400;2023-11-19T03:02:09;95562.09;;;4.34;73.57
32197;BME280;18697;42.770;23.400;2023-11-19T03:04:39;95559.00;;;4.32;73.36
32197;BME280;18697;42.770;23.400;2023-11-19T03:07:08;95561.31;;;4.34;73.21
32197;BME280;18697;42.770;23.400;2023-11-19T03:09:33;95576.78;;;4.27;73.18
32197;BME280;18697;42.770;23.400;2023-11-19T03:12:01;95587.50;;;4.22;73.25
32197;BME280;18697;42.770;23.400;2023-11-19T03:14:26;95585.72;;;4.12;73.26
32197;BME280;18697;42.770;23.400;2023-11-19T03:16:52;95590.44;;;4.11;73.35
32197;BME280;18697;42.770;23.400;2023-11-19T03:19:18;95582.97;;;4.12;73.91
32197;BME280;18697;42.770;23.400;2023-11-19T03:21:43;95578.38;;;4.05;73.49
32197;BME280;18697;42.770;23.400;2023-11-19T03:24:10;95586.63;;;4.05;73.77
32197;BME280;18697;42.770;23.400;2023-11-19T03:26:35;95583.53;;;4.03;73.79
32197;BME280;18697;42.770;23.400;2023-11-19T03:29:02;95580.84;;;4.00;73.61
32197;BME280;18697;42.770;23.400;2023-11-19T03:31:28;95576.56;;;3.99;73.75
32197;BME280;18697;42.770;23.400;2023-11-19T03:33:54;95586.84;;;3.94;74.04
32197;BME280;18697;42.770;23.400;2023-11-19T03:36:19;95590.38;;;3.95;74.48
32197;BME280;18697;42.770;23.400;2023-11-19T03:38:44;95585.94;;;4.01;74.09
32197;BME280;18697;42.770;23.400;2023-11-19T03:41:13;95591.00;;;4.03;74.12
32197;BME280;18697;42.770;23.400;2023-11-19T03:43:39;95584.72;;;4.02;74.36
32197;BME280;18697;42.770;23.400;2023-11-19T03:46:16;95592.13;;;4.05;74.27
32197;BME280;18697;42.770;23.400;2023-11-19T03:48:42;95606.50;;;4.13;74.31
32197;BME280;18697;42.770;23.400;2023-11-19T03:51:07;95609.19;;;4.16;74.38
32197;BME280;18697;42.770;23.400;2023-11-19T03:53:32;95615.19;;;4.11;74.42
32197;BME280;18697;42.770;23.400;2023-11-19T03:55:58;95620.63;;;4.15;74.23
32197;BME280;18697;42.770;23.400;2023-11-19T03:58:24;95619.97;;;4.07;74.14
32197;BME280;18697;42.770;23.400;2023-11-19T04:00:49;95611.66;;;4.11;73.77
32197;BME280;18697;42.770;23.400;2023-11-19T04:03:14;95618.72;;;4.12;73.90
32197;BME280;18697;42.770;23.400;2023-11-19T04:05:40;95615.66;;;4.06;74.32
32197;BME280;18697;42.770;23.400;2023-11-19T04:08:05;95618.78;;;4.08;74.58
32197;BME280;18697;42.770;23.400;2023-11-19T04:10:30;95617.72;;;4.02;74.55
32197;BME280;18697;42.770;23.400;2023-11-19T04:12:56;95611.16;;;3.96;74.37
32197;BME280;18697;42.770;23.400;2023-11-19T04:15:21;95617.19;;;3.87;74.72
32197;BME280;18697;42.770;23.400;2023-11-19T04:17:47;95619.09;;;3.90;74.76
32197;BME280;18697;42.770;23.400;2023-11-19T04:20:12;95625.38;;;3.91;75.43
32197;BME280;18697;42.770;23.400;2023-11-19T04:22:39;95621.38;;;3.95;75.16
32197;BME280;18697;42.770;23.400;2023-11-19T04:25:04;95626.22;;;3.88;75.38
32197;BME280;18697;42.770;23.400;2023-11-19T04:27:30;95628.69;;;3.82;75.29
32197;BME280;18697;42.770;23.400;2023-11-19T04:29:56;95623.13;;;3.86;75.71
32197;BME280;18697;42.770;23.400;2023-11-19T04:32:21;95625.84;;;3.86;75.39
32197;BME280;18697;42.770;23.400;2023-11-19T04:34:47;95619.16;;;3.87;75.14
32197;BME280;18697;42.770;23.400;2023-11-19T04:37:12;95637.91;;;3.92;75.27
32197;BME280;18697;42.770;23.400;2023-11-19T04:39:37;95640.03;;;3.84;75.13
32197;BME280;18697;42.770;23.400;2023-11-19T04:42:03;95644.31;;;3.85;75.34
32197;BME280;18697;42.770;23.400;2023-11-19T04:44:29;95638.81;;;3.85;75.42
32197;BME280;18697;42.770;23.400;2023-11-19T04:46:55;95632.50;;;3.88;75.30
32197;BME280;18697;42.770;23.400;2023-11-19T04:49:20;95642.63;;;3.91;75.64
32197;BME280;18697;42.770;23.400;2023-11-19T04:51:46;95642.81;;;3.81;75.47
32197;BME280;18697;42.770;23.400;2023-11-19T04:54:12;95649.28;;;3.94;75.33
32197;BME280;18697;42.770;23.400;2023-11-19T04:56:37;95646.03;;;3.99;74.83
32197;BME280;18697;42.770;23.400;2023-11-19T04:59:03;95655.25;;;3.89;74.60
32197;BME280;18697;42.770;23.400;2023-11-19T05:01:31;95654.00;;;3.93;74.76
32197;BME280;18697;42.770;23.400;2023-11-19T05:03:56;95665.41;;;3.92;74.18
32197;BME280;18697;42.770;23.400;2023-11-19T05:06:28;95670.13;;;3.91;75.08
32197;BME280;18697;42.770;23.400;2023-11-19T05:08:55;95677.41;;;4.02;74.34
32197;BME280;18697;42.770;23.400;2023-11-19T05:11:20;95672.88;;;3.91;74.32
32197;BME280;18697;42.770;23.400;2023-11-19T05:13:46;95661.59;;;3.86;74.71
32197;BME280;18697;42.770;23.400;2023-11-19T05:16:12;95678.59;;;4.01;74.55
32197;BME280;18697;42.770;23.400;2023-11-19T05:18:40;95667.66;;;3.97;74.57
32197;BME280;18697;42.770;23.400;2023-11-19T05:21:06;95666.47;;;3.98;74.19
32197;BME280;18697;42.770;23.400;2023-11-19T05:23:32;95662.66;;;3.92;74.13
32197;BME280;18697;42.770;23.400;2023-11-19T05:25:59;95667.06;;;3.86;74.51
32197;BME280;18697;42.770;23.400;2023-11-19T05:28:25;95664.63;;;3.91;74.42
32197;BME280;18697;42.770;23.400;2023-11-19T05:30:51;95676.09;;;3.86;75.02
32197;BME280;18697;42.770;23.400;2023-11-19T05:33:16;95671.03;;;3.85;74.40
32197;BME280;18697;42.770;23.400;2023-11-19T05:35:42;95674.25;;;3.80;74.67
32197;BME280;18697;42.770;23.400;2023-11-19T05:38:07;95679.75;;;3.80;74.73
32197;BME280;18697;42.770;23.400;2023-11-19T05:40:32;95689.78;;;3.67;75.13
32197;BME280;18697;42.770;23.400;2023-11-19T05:42:58;95682.28;;;3.71;74.87
32197;BME280;18697;42.770;23.400;2023-11-19T05:45:23;95686.53;;;3.72;75.07
32197;BME280;18697;42.770;23.400;2023-11-19T05:47:49;95692.03;;;3.72;75.14
32197;BME280;18697;42.770;23.400;2023-11-19T05:50:14;95689.84;;;3.63;75.35
32197;BME280;18697;42.770;23.400;2023-11-19T05:52:39;95688.81;;;3.77;75.49
32197;BME280;18697;42.770;23.400;2023-11-19T05:55:05;95690.78;;;3.76;75.34
32197;BME280;18697;42.770;23.400;2023-11-19T05:57:35;95701.72;;;3.80;75.19
32197;BME280;18697;42.770;23.400;2023-11-19T06:00:00;95704.72;;;3.89;75.13
32197;BME280;18697;42.770;23.400;2023-11-19T06:02:26;95712.53;;;3.90;74.90
32197;BME280;18697;42.770;23.400;2023-11-19T06:04:52;95712.13;;;3.92;75.22
32197;BME280;18697;42.770;23.400;2023-11-19T06:07:18;95717.63;;;3.92;74.68
32197;BME280;18697;42.770;23.400;2023-11-19T06:09:45;95719.53;;;3.95;74.56
32197;BME280;18697;42.770;23.400;2023-11-19T06:12:10;95734.16;;;3.88;74.71
32197;BME280;18697;42.770;23.400;2023-11-19T06:14:35;95720.16;;;3.79;74.49
32197;BME280;18697;42.770;23.400;2023-11-19T06:17:01;95717.72;;;3.85;74.54
32197;BME280;18697;42.770;23.400;2023-11-19T06:19:27;95714.25;;;3.81;74.82
32197;BME280;18697;42.770;23.400;2023-11-19T06:21:52;95709.53;;;3.81;74.92
32197;BME280;18697;42.770;23.400;2023-11-19T06:24:18;95707.94;;;3.84;74.92
32197;BME280;18697;42.770;23.400;2023-11-19T06:26:43;95712.72;;;3.80;75.52
32197;BME280;18697;42.770;23.400;2023-11-19T06:29:08;95720.66;;;3.74;74.70
32197;BME280;18697;42.770;23.400;2023-11-19T06:31:34;95731.34;;;3.69;74.96
32197;BME280;18697;42.770;23.400;2023-11-19T06:33:59;95716.53;;;3.62;75.27
32197;BME280;18697;42.770;23.400;2023-11-19T06:36:24;95709.84;;;3.63;75.36
32197;BME280;18697;42.770;23.400;2023-11-19T06:38:51;95731.78;;;3.67;75.03
32197;BME280;18697;42.770;23.400;2023-11-19T06:41:17;95737.22;;;3.71;74.82
32197;BME280;18697;42.770;23.400;2023-11-19T06:43:42;95718.47;;;3.66;74.56
32197;BME280;18697;42.770;23.400;2023-11-19T06:46:16;95732.66;;;3.60;75.13
32197;BME280;18697;42.770;23.400;2023-11-19T06:48:41;95729.25;;;3.53;74.59
32197;BME280;18697;42.770;23.400;2023-11-19T06:51:09;95732.72;;;3.57;75.12
32197;BME280;18697;42.770;23.400;2023-11-19T06:53:34;95723.41;;;3.51;74.67
32197;BME280;18697;42.770;23.400;2023-11-19T06:56:01;95724.13;;;3.55;74.48
32197;BME280;18697;42.770;23.400;2023-11-19T06:58:28;95728.41;;;3.56;74.50
32197;BME280;18697;42.770;23.400;2023-11-19T07:00:53;95732.31;;;3.58;74.17
32197;BME280;18697;42.770;23.400;2023-11-19T07:03:19;95737.31;;;3.63;74.22
32197;BME280;18697;42.770;23.400;2023-11-19T07:05:45;95722.41;;;3.65;73.90
32197;BME280;18697;42.770;23.400;2023-11-19T07:08:10;95738.00;;;3.71;73.75
32197;BME280;18697;42.770;23.400;2023-11-19T07:10:36;95733.03;;;3.62;73.54
32197;BME280;18697;42.770;23.400;2023-11-19T07:13:01;95741.22;;;3.66;73.17
32197;BME280;18697;42.770;23.400;2023-11-19T07:15:31;95739.59;;;3.69;73.66
32197;BME280;18697;42.770;23.400;2023-11-19T07:17:57;95741.84;;;3.74;73.58
32197;BME280;18697;42.770;23.400;2023-11-19T07:20:24;95741.94;;;3.70;73.27
32197;BME280;18697;42.770;23.400;2023-11-19T07:22:52;95736.00;;;3.72;73.17
32197;BME280;18697;42.770;23.400;2023-11-19T07:25:17;95744.19;;;3.75;73.17
32197;BME280;18697;42.770;23.400;2023-11-19T07:27:43;95743.28;;;3.82;73.35
32197;BME280;18697;42.770;23.400;2023-11-19T07:30:08;95751.59;;;3.78;72.74
32197;BME280;18697;42.770;23.400;2023-11-19T07:32:34;95759.84;;;3.78;73.24
32197;BME280;18697;42.770;23.400;2023-11-19T07:34:59;95751.53;;;3.82;73.09
32197;BME280;18697;42.770;23.400;2023-11-19T07:37:25;95765.78;;;3.73;73.34
32197;BME280;18697;42.770;23.400;2023-11-19T07:39:50;95760.66;;;3.75;72.74
32197;BME280;18697;42.770;23.400;2023-11-19T07:42:16;95771.19;;;3.80;73.40
32197;BME280;18697;42.770;23.400;2023-11-19T07:44:42;95771.97;;;3.81;73.30
32197;BME280;18697;42.770;23.400;2023-11-19T07:47:08;95766.03;;;3.82;73.51
32197;BME280;18697;42.770;23.400;2023-11-19T07:49:33;95760.13;;;3.84;73.53
32197;BME280;18697;42.770;23.400;2023-11-19T07:51:59;95766.34;;;3.88;72.90
32197;BME280;18697;42.770;23.400;2023-11-19T07:54:24;95771.00;;;3.91;72.71
32197;BME280;18697;42.770;23.400;2023-11-19T07:56:50;95775.97;;;4.00;72.65
32197;BME280;18697;42.770;23.400;2023-11-19T07:59:15;95772.94;;;3.94;72.48
32197;BME280;18697;42.770;23.400;2023-11-19T08:01:41;95774.97;;;3.90;72.97
32197;BME280;18697;42.770;23.400;2023-11-19T08:04:06;95791.91;;;3.85;73.38
32197;BME280;18697;42.770;23.400;2023-11-19T08:06:32;95788.22;;;3.95;73.27
32197;BME280;18697;42.770;23.400;2023-11-19T08:08:57;95781.59;;;3.92;73.18
32197;BME280;18697;42.770;23.400;2023-11-19T08:11:23;95773.59;;;4.02;72.69
32197;BME280;18697;42.770;23.400;2023-11-19T08:13:49;95788.16;;;3.99;72.30
32197;BME280;18697;42.770;23.400;2023-11-19T08:16:14;95800.19;;;4.08;72.69
32197;BME280;18697;42.770;23.400;2023-11-19T08:18:42;95805.25;;;4.10;72.73
32197;BME280;18697;42.770;23.400;2023-11-19T08:21:08;95803.25;;;4.14;72.68
32197;BME280;18697;42.770;23.400;2023-11-19T08:23:35;95796.53;;;4.15;72.68
32197;BME280;18697;42.770;23.400;2023-11-19T08:26:01;95794.38;;;4.03;72.11
32197;BME280;18697;42.770;23.400;2023-11-19T08:28:26;95796.97;;;4.13;71.86
32197;BME280;18697;42.770;23.400;2023-11-19T08:30:51;95800.38;;;4.21;72.32
32197;BME280;18697;42.770;23.400;2023-11-19T08:33:17;95798.31;;;4.02;71.58
32197;BME280;18697;42.770;23.400;2023-11-19T08:35:42;95805.75;;;4.05;72.06
32197;BME280;18697;42.770;23.400;2023-11-19T08:38:08;95820.63;;;4.07;72.01
32197;BME280;18697;42.770;23.400;2023-11-19T08:40:33;95818.94;;;4.13;71.94
32197;BME280;18697;42.770;23.400;2023-11-19T08:42:58;95821.69;;;4.13;71.96
32197;BME280;18697;42.770;23.400;2023-11-19T08:45:24;95816.25;;;4.10;71.79
32197;BME280;18697;42.770;23.400;2023-11-19T08:47:50;95815.91;;;4.08;71.70
32197;BME280;18697;42.770;23.400;2023-11-19T08:50:15;95808.53;;;4.01;71.75
32197;BME280;18697;42.770;23.400;2023-11-19T08:52:41;95806.50;;;4.05;71.57
32197;BME280;18697;42.770;23.400;2023-11-19T08:55:07;95820.16;;;4.12;72.08
32197;BME280;18697;42.770;23.400;2023-11-19T08:57:35;95835.69;;;4.22;71.81
32197;BME280;18697;42.770;23.400;2023-11-19T09:00:00;95824.34;;;4.20;70.58
32197;BME280;18697;42.770;23.400;2023-11-19T09:02:26;95819.31;;;4.15;70.70
32197;BME280;18697;42.770;23.400;2023-11-19T09:04:51;95815.06;;;4.11;70.78
32197;BME280;18697;42.770;23.400;2023-11-19T09:07:17;95796.25;;;4.09;71.27
32197;BME280;18697;42.770;23.400;2023-11-19T09:09:42;95807.44;;;4.22;71.62
32197;BME280;18697;42.770;23.400;2023-11-19T09:12:08;95794.41;;;4.26;70.82
32197;BME280;18697;42.770;23.400;2023-11-19T09:14:33;95790.41;;;4.31;70.68
32197;BME280;18697;42.770;23.400;2023-11-19T09:16:59;95790.63;;;4.40;70.40
32197;BME280;18697;42.770;23.400;2023-11-19T09:19:25;95792.38;;;4.50;70.26
32197;BME280;18697;42.770;23.400;2023-11-19T09:21:54;95810.09;;;4.49;70.39
32197;BME280;18697;42.770;23.400;2023-11-19T09:24:19;95814.03;;;4.48;69.66
32197;BME280;18697;42.770;23.400;2023-11-19T09:26:45;95819.25;;;4.42;69.22
32197;BME280;18697;42.770;23.400;2023-11-19T09:29:11;95815.03;;;4.38;69.21
32197;BME280;18697;42.770;23.400;2023-11-19T09:31:40;95805.63;;;4.35;70.04
32197;BME280;18697;42.770;23.400;2023-11-19T09:34:05;95809.28;;;4.28;69.88
32197;BME280;18697;42.770;23.400;2023-11-19T09:36:31;95805.28;;;4.33;69.86
32197;BME280;18697;42.770;23.400;2023-11-19T09:38:56;95789.91;;;4.36;70.13
32197;BME280;18697;42.770;23.400;2023-11-19T09:41:23;95793.31;;;4.43;69.51
32197;BME280;18697;42.770;23.400;2023-11-19T09:43:48;95780.81;;;4.39;69.49
32197;BME280;18697;42.770;23.400;2023-11-19T09:46:15;95772.94;;;4.41;69.73
32197;BME280;18697;42.770;23.400;2023-11-19T09:48:42;95764.09;;;4.49;69.84
32197;BME280;18697;42.770;23.400;2023-11-19T09:51:09;95761.72;;;4.51;69.70
32197;BME280;18697;42.770;23.400;2023-11-19T09:53:36;95760.56;;;4.49;69.56
32197;BME280;18697;42.770;23.400;2023-11-19T09:56:03;95761.59;;;4.58;69.20
32197;BME280;18697;42.770;23.400;2023-11-19T09:58:32;95758.34;;;4.63;69.70
32197;BME280;18697;42.770;23.400;2023-11-19T10:00:58;95756.72;;;4.66;69.32
32197;BME280;18697;42.770;23.400;2023-11-19T10:03:28;95752.56;;;4.78;68.80
32197;BME280;18697;42.770;23.400;2023-11-19T10:05:57;95746.06;;;5.08;68.44
32197;BME280;18697;42.770;23.400;2023-11-19T10:08:24;95747.72;;;5.21;67.60
32197;BME280;18697;42.770;23.400;2023-11-19T10:10:50;95738.59;;;5.08;67.34
32197;BME280;18697;42.770;23.400;2023-11-19T10:13:17;95751.59;;;5.24;67.68
32197;BME280;18697;42.770;23.400;2023-11-19T10:15:43;95741.88;;;5.19;67.12
32197;BME280;18697;42.770;23.400;2023-11-19T10:18:09;95765.06;;;5.38;66.64
32197;BME280;18697;42.770;23.400;2023-11-19T10:20:38;95754.00;;;5.22;66.04
32197;BME280;18697;42.770;23.400;2023-11-19T10:23:05;95754.19;;;5.15;66.53
32197;BME280;18697;42.770;23.400;2023-11-19T10:25:32;95760.53;;;5.12;65.74
32197;BME280;18697;42.770;23.400;2023-11-19T10:27:57;95752.84;;;5.03;65.73
32197;BME280;18697;42.770;23.400;2023-11-19T10:30:24;95750.53;;;5.02;66.17
32197;BME280;18697;42.770;23.400;2023-11-19T10:33:13;95746.00;;;4.91;66.23
32197;BME280;18697;42.770;23.400;2023-11-19T10:35:52;95743.13;;;4.79;66.74
32197;BME280;18697;42.770;23.400;2023-11-19T10:38:18;95745.38;;;4.84;66.67
32197;BME280;18697;42.770;23.400;2023-11-19T10:40:44;95748.97;;;4.81;66.95
32197;BME280;18697;42.770;23.400;2023-11-19T10:43:09;95753.28;;;4.82;66.91
32197;BME280;18697;42.770;23.400;2023-11-19T10:45:36;95746.44;;;4.90;66.89
32197;BME280;18697;42.770;23.400;2023-11-19T10:48:03;95744.81;;;4.92;66.78
32197;BME280;18697;42.770;23.400;2023-11-19T10:50:42;95737.69;;;4.95;66.53
32197;BME280;18697;42.770;23.400;2023-11-19T10:53:10;95749.53;;;4.92;66.70
32197;BME280;18697;42.770;23.400;2023-11-19T10:55:38;95754.53;;;4.97;66.56
32197;BME280;18697;42.770;23.400;2023-11-19T10:58:06;95751.22;;;5.06;66.00
32197;BME280;18697;42.770;23.400;2023-11-19T11:00:56;95747.06;;;4.98;66.21
32197;BME280;18697;42.770;23.400;2023-11-19T11:03:25;95739.78;;;5.07;66.44
32197;BME280;18697;42.770;23.400;2023-11-19T11:05:53;95743.88;;;5.19;66.08
32197;BME280;18697;42.770;23.400;2023-11-19T11:08:20;95733.28;;;5.34;66.68
32197;BME280;18697;42.770;23.400;2023-11-19T11:10:55;95725.09;;;5.30;65.22
32197;BME280;18697;42.770;23.400;2023-11-19T11:13:23;95723.22;;;5.27;65.34
32197;BME280;18697;42.770;23.400;2023-11-19T11:15:50;95712.13;;;5.31;64.73
32197;BME280;18697;42.770;23.400;2023-11-19T11:18:15;95707.66;;;5.37;64.44
32197;BME280;18697;42.770;23.400;2023-11-19T11:20:44;95713.84;;;5.41;65.28
32197;BME280;18697;42.770;23.400;2023-11-19T11:29:10;95714.97;;;5.43;64.34
32197;BME280;18697;42.770;23.400;2023-11-19T11:37:44;95709.28;;;5.34;65.58
32197;BME280;18697;42.770;23.400;2023-11-19T11:40:16;95713.00;;;5.44;65.60
32197;BME280;18697;42.770;23.400;2023-11-19T11:42:44;95708.09;;;5.51;65.15
32197;BME280;18697;42.770;23.400;2023-11-19T11:45:14;95703.47;;;5.65;66.02
32197;BME280;18697;42.770;23.400;2023-11-19T11:50:12;95706.31;;;5.77;63.53
32197;BME280;18697;42.770;23.400;2023-11-19T11:55:37;95706.66;;;5.79;63.95
32197;BME280;18697;42.770;23.400;2023-11-19T11:58:03;95707.00;;;5.81;63.91
32197;BME280;18697;42.770;23.400;2023-11-19T12:00:37;95700.50;;;5.91;63.00
32197;BME280;18697;42.770;23.400;2023-11-19T12:03:05;95700.38;;;5.95;63.61
32197;BME280;18697;42.770;23.400;2023-11-19T12:05:32;95698.47;;;6.08;63.72
32197;BME280;18697;42.770;23.400;2023-11-19T12:08:06;95697.84;;;6.17;63.49
32197;BME280;18697;42.770;23.400;2023-11-19T12:10:42;95687.75;;;6.26;63.51
32197;BME280;18697;42.770;23.400;2023-11-19T12:13:09;95678.50;;;6.33;63.34
32197;BME280;18697;42.770;23.400;2023-11-19T12:18:19;95666.72;;;6.74;61.89
32197;BME280;18697;42.770;23.400;2023-11-19T12:20:45;95672.38;;;6.83;61.61
32197;BME280;18697;42.770;23.400;2023-11-19T12:23:11;95660.25;;;6.93;60.80
32197;BME280;18697;42.770;23.400;2023-11-19T12:25:36;95658.41;;;7.16;61.33
32197;BME280;18697;42.770;23.400;2023-11-19T12:28:02;95664.72;;;7.42;60.58
32197;BME280;18697;42.770;23.400;2023-11-19T12:30:29;95664.31;;;7.78;60.76
32197;BME280;18697;42.770;23.400;2023-11-19T12:32:55;95654.13;;;8.22;59.52
32197;BME280;18697;42.770;23.400;2023-11-19T12:35:21;95653.69;;;8.80;56.95
32197;BME280;18697;42.770;23.400;2023-11-19T12:37:47;95634.00;;;9.09;55.75
32197;BME280;18697;42.770;23.400;2023-11-19T12:40:18;95645.47;;;9.29;54.14
32197;BME280;18697;42.770;23.400;2023-11-19T12:42:45;95635.38;;;9.44;52.91
32197;BME280;18697;42.770;23.400;2023-11-19T12:45:10;95635.13;;;9.61;52.41
32197;BME280;18697;42.770;23.400;2023-11-19T12:47:40;95629.63;;;9.79;51.05
32197;BME280;18697;42.770;23.400;2023-11-19T12:50:07;95633.81;;;10.02;51.26
32197;BME280;18697;42.770;23.400;2023-11-19T12:52:34;95638.59;;;9.92;48.95
32197;BME280;18697;42.770;23.400;2023-11-19T12:55:00;95625.66;;;10.07;49.58
32197;BME280;18697;42.770;23.400;2023-11-19T12:57:42;95632.13;;;10.04;48.66
32197;BME280;18697;42.770;23.400;2023-11-19T13:00:18;95625.78;;;9.85;49.33
32197;BME280;18697;42.770;23.400;2023-11-19T13:02:51;95616.03;;;9.63;49.15
32197;BME280;18697;42.770;23.400;2023-11-19T13:05:28;95609.28;;;9.82;49.86
32197;BME280;18697;42.770;23.400;2023-11-19T13:08:05;95611.03;;;10.07;50.41
32197;BME280;18697;42.770;23.400;2023-11-19T13:10:50;95618.13;;;10.17;48.98
32197;BME280;18697;42.770;23.400;2023-11-19T13:13:16;95612.75;;;10.32;48.97
32197;BME280;18697;42.770;23.400;2023-11-19T13:15:42;95623.88;;;10.32;48.16
32197;BME280;18697;42.770;23.400;2023-11-19T13:18:10;95609.34;;;10.18;47.74